Latest Coastal Weather Observations for Roebourne Airport

IDW60701

Issued at 4:45 pm WST Friday 28 November 2014 (issued every 10 minutes, with the page automatically refreshed every 10 minutes)

About coastal observations | Map of coastal stations | Coastal observations for WA | Marine services | Other Formats
Station Details ID: 004090 Name: ROEBOURNE AERO Lat: -20.76 Lon: 117.16 Height: 10.7 m
Data from the previous 72 hours. | See also: Recent months at Roebourne Airport
Date/Time
WST
Temp

°C
Wind Pressure Rain
since 9am
mm
Weather Cloud Vis
km
Sea
Height
m
Swell
Dir
 
Speed
knots
Gust
knots
hPa Trend Height
m
Period
s
Dir
28/04:30pm 35.6 WNW 17 22 1006.9 - 0.0 - - - - - - -
28/04:00pm 36.4 NW 16 20 1007.0 - 0.0 - - - - - - -
28/03:30pm 37.1 WNW 14 18 1007.0 - 0.0 - - - - - - -
28/03:00pm 36.6 NW 15 23 1007.2 - 0.0 - - - - - - -
28/02:30pm 36.3 NW 14 19 1007.6 - 0.0 - - - - - - -
28/02:00pm 37.2 NW 12 17 1008.0 - 0.0 - - - - - - -
28/01:30pm 37.1 NNW 15 21 1008.4 - 0.0 - - - - - - -
28/01:00pm 36.8 N 16 21 1008.6 - 0.0 - - - - - - -
28/12:30pm 36.7 N 15 19 1008.8 - 0.0 - - - - - - -
28/12:00pm 36.6 N 12 17 1009.1 - 0.0 - - - - - - -
28/11:30am 36.9 N 15 19 1009.4 - 0.0 - - - - - - -
28/11:00am 36.8 NNE 6 11 1009.7 - 0.0 - - - - - - -
28/10:30am 35.3 NNE 4 6 1010.1 - 0.0 - - - - - - -
28/10:00am 35.0 SE 5 9 1010.3 - 0.0 - - - - - - -
28/09:30am 34.2 S 5 9 1010.6 - 0.0 - - - - - - -
28/09:00am 33.2 WSW 6 12 1010.9 - 0.0 - - - - - - -
28/08:30am 32.4 SSW 5 10 1010.9 - 0.0 - - - - - - -
28/08:00am 31.6 S 7 9 1011.0 - 0.0 - - - - - - -
28/07:30am 30.7 SSW 7 10 1011.0 - 0.0 - - - - - - -
28/07:00am 29.2 S 5 7 1011.1 - 0.0 - - - - - - -
28/06:30am 27.5 WSW 1 3 1010.6 - 0.0 - - - - - - -
28/06:00am 25.1 CALM 0 0 1010.4 - 0.0 - - - - - - -
28/05:30am 24.4 SSW 2 3 1010.0 - 0.0 - - - - - - -
28/05:00am 24.5 ESE 2 3 1009.8 - 0.0 - - - - - - -
28/04:30am 24.7 S 6 7 1009.8 - 0.0 - - - - - - -
28/04:00am 25.0 S 5 6 1009.5 - 0.0 - - - - - - -
28/03:30am 25.6 SSW 7 10 1009.3 - 0.0 - - - - - - -
28/03:00am 26.4 SW 9 10 1009.0 - 0.0 - - - - - - -
28/02:30am 26.8 WSW 7 9 1009.2 - 0.0 - - - - - - -
28/02:00am 27.0 SW 9 12 1009.3 - 0.0 - - - - - - -
28/01:30am 27.0 SW 8 11 1009.3 - 0.0 - - - - - - -
28/01:00am 27.1 SW 8 9 1009.5 - 0.0 - - - - - - -
28/12:30am 27.3 SW 8 11 1009.8 - 0.0 - - - - - - -
28/12:00am 27.6 WSW 9 14 1009.9 - 0.0 - - - - - - -
 
Date/Time
WST
Temp

°C
Wind Pressure Rain
since 9am
mm
Weather Cloud Vis
km
Sea
Height
m
Swell
Dir
 
Speed
knots
Gust
knots
hPa Trend Height
m
Period
s
Dir
27/11:30pm 27.7 WSW 9 11 1010.2 - 0.0 - - - - - - -
27/11:00pm 27.8 WSW 10 13 1010.4 - 0.0 - - - - - - -
27/10:30pm 28.0 WSW 11 16 1010.5 - 0.0 - - - - - - -
27/10:00pm 28.1 WSW 11 15 1010.5 - 0.0 - - - - - - -
27/09:30pm 28.0 WSW 13 17 1010.3 - 0.0 - - - - - - -
27/09:00pm 28.2 W 13 17 1010.2 - 0.0 - - - - - - -
27/08:30pm 28.6 W 13 17 1010.1 - 0.0 - - - - - - -
27/08:00pm 28.9 W 12 15 1009.8 - 0.0 - - - - - - -
27/07:30pm 29.0 WNW 13 17 1009.4 - 0.0 - - - - - - -
27/07:00pm 29.8 WNW 12 15 1009.0 - 0.0 - - - - - - -
27/06:30pm 29.9 NW 11 15 1008.4 - 0.0 - - - - - - -
27/06:00pm 30.9 NW 13 17 1008.0 - 0.0 - - - - - - -
27/05:30pm 31.9 NNW 13 17 1007.6 - 0.0 - - - - - - -
27/05:00pm 32.9 NNW 13 16 1007.4 - 0.0 - - - - - - -
27/04:30pm 32.8 NNW 15 19 1007.4 - 0.0 - - - - - - -
27/04:00pm 33.3 N 17 21 1007.7 - 0.0 - - - - - - -
27/03:30pm 33.6 N 18 21 1008.0 - 0.0 - - - - - - -
27/03:00pm 34.4 NNW 16 19 1008.1 - 0.0 - - - - - - -
27/02:30pm 35.9 N 16 22 1008.3 - 0.0 - - - - - - -
27/02:00pm 34.9 N 16 21 1008.6 - 0.0 - - - - - - -
27/01:30pm 35.2 N 15 19 1008.9 - 0.0 - - - - - - -
27/01:00pm 34.7 N 14 21 1009.2 - 0.0 - - - - - - -
27/12:30pm 35.4 N 15 19 1009.4 - 0.0 - - - - - - -
27/12:00pm 33.9 NNE 14 19 1009.5 - 0.0 - - - - - - -
27/11:30am 35.3 NNE 14 19 1009.7 - 0.0 - - - - - - -
27/11:00am 35.0 NE 12 18 1009.9 - 0.0 - - - - - - -
27/10:30am 34.4 ENE 11 17 1010.1 - 0.0 - - - - - - -
27/10:00am 33.7 ENE 12 17 1010.4 - 0.0 - - - - - - -
27/09:30am 33.7 ENE 13 20 1010.7 - 0.0 - - - - - - -
27/09:00am 32.9 E 14 19 1010.8 - 0.0 - - - - - - -
27/08:30am 31.8 E 13 19 1010.7 - 0.0 - - - - - - -
27/08:00am 30.8 E 16 20 1010.5 - 0.0 - - - - - - -
27/07:30am 30.3 ESE 16 21 1010.4 - 0.0 - - - - - - -
27/07:00am 29.1 E 18 23 1010.2 - 0.0 - - - - - - -
27/06:56am 29.2 E 18 21 1010.1 - 0.0 - - - - - - -
27/06:30am 27.9 E 7 11 1010.1 - 0.0 - - - - - - -
27/06:00am 25.7 S 6 8 1009.8 - 0.0 - - - - - - -
27/05:30am 25.5 WSW 4 6 1009.5 - 0.0 - - - - - - -
27/05:00am 25.7 W 6 8 1009.0 - 0.0 - - - - - - -
27/04:30am 25.3 W 5 6 1008.7 - 0.0 - - - - - - -
27/04:00am 25.4 SW 2 4 1008.6 - 0.0 - - - - - - -
27/03:30am 25.3 SSW 5 5 1008.5 - 0.0 - - - - - - -
27/03:00am 25.8 SW 6 7 1008.4 - 0.0 - - - - - - -
27/02:30am 26.2 SW 7 9 1008.2 - 0.0 - - - - - - -
27/02:00am 26.7 WSW 9 11 1008.2 - 0.0 - - - - - - -
27/01:30am 26.8 SW 10 13 1008.1 - 0.0 - - - - - - -
27/01:00am 27.0 SW 10 13 1008.2 - 0.0 - - - - - - -
27/12:30am 27.1 WSW 10 13 1008.3 - 0.0 - - - - - - -
27/12:00am 27.3 W 9 12 1008.4 - 0.0 - - - - - - -
 
Date/Time
WST
Temp

°C
Wind Pressure Rain
since 9am
mm
Weather Cloud Vis
km
Sea
Height
m
Swell
Dir
 
Speed
knots
Gust
knots
hPa Trend Height
m
Period
s
Dir
26/11:30pm 27.3 W 9 11 1008.6 - 0.0 - - - - - - -
26/11:00pm 27.3 W 10 14 1008.7 - 0.0 - - - - - - -
26/10:30pm 27.5 W 9 14 1008.7 - 0.0 - - - - - - -
26/10:00pm 27.4 W 9 12 1008.5 - 0.0 - - - - - - -
26/09:30pm 27.6 W 10 13 1008.2 - 0.0 - - - - - - -
26/09:00pm 27.8 W 11 15 1008.1 - 0.0 - - - - - - -
26/08:30pm 28.4 W 11 14 1008.0 - 0.0 - - - - - - -
26/08:00pm 28.8 W 10 14 1007.7 - 0.0 - - - - - - -
26/07:30pm 29.0 W 11 14 1007.5 - 0.0 - - - - - - -
26/07:00pm 29.3 WNW 11 13 1007.4 - 0.0 - - - - - - -
26/06:30pm 30.0 WNW 12 16 1006.9 - 0.0 - - - - - - -
26/06:00pm 30.7 NW 14 17 1006.7 - 0.0 - - - - - - -
26/05:30pm 31.5 NW 15 19 1006.5 - 0.0 - - - - - - -
26/05:00pm 32.4 NW 15 19 1006.5 - 0.0 - - - - - - -
26/04:30pm 33.5 NNW 14 18 1006.5 - 0.0 - - - - - - -
26/04:00pm 33.3 NNW 16 21 1006.6 - 0.0 - - - - - - -
26/03:30pm 34.3 NNW 15 19 1006.7 - 0.0 - - - - - - -
26/03:00pm 34.1 N 17 21 1006.9 - 0.0 - - - - - - -
26/02:30pm 34.9 N 17 23 1007.1 - 0.0 - - - - - - -
26/02:00pm 35.7 N 19 24 1007.3 - 0.0 - - - - - - -
26/01:30pm 34.8 N 18 22 1007.5 - 0.0 - - - - - - -
26/01:00pm 35.4 NNE 16 21 1007.7 - 0.0 - - - - - - -
26/12:30pm 35.3 NNE 14 19 1008.0 - 0.0 - - - - - - -
26/12:00pm 34.6 NNE 13 17 1008.5 - 0.0 - - - - - - -
26/11:30am 33.4 NNE 13 17 1009.0 - 0.0 - - - - - - -
26/11:00am 33.8 NNE 12 17 1009.4 - 0.0 - - - - - - -
26/10:30am 32.9 NNE 12 15 1009.9 - 0.0 - - - - - - -
26/10:00am 32.6 NE 12 17 1010.1 - 0.0 - - - - - - -
26/09:30am 32.7 NE 14 19 1010.2 - 0.0 - - - - - - -
26/09:00am 32.1 NE 13 16 1010.5 - 0.0 - - - - - - -
26/08:30am 31.4 ENE 12 18 1010.5 - 0.0 - - - - - - -
26/08:00am 31.1 ENE 10 14 1010.5 - 0.0 - - - - - - -
26/07:30am 30.3 E 8 11 1010.4 - 0.0 - - - - - - -
26/07:00am 29.1 ESE 10 13 1010.5 - 0.0 - - - - - - -
26/06:30am 28.2 E 9 12 1010.5 - 0.0 - - - - - - -
26/06:00am 27.2 E 10 14 1010.2 - 0.0 - - - - - - -
26/05:30am 27.1 E 13 17 1010.0 - 0.0 - - - - - - -
26/05:00am 27.4 E 15 20 1009.5 - 0.0 - - - - - - -
26/04:30am 27.4 E 13 18 1009.3 - 0.0 - - - - - - -
26/04:00am 27.6 E 12 17 1009.1 - 0.0 - - - - - - -
26/03:30am 29.0 ESE 16 24 1008.7 - 0.0 - - - - - - -
26/03:25am 29.2 SE 15 20 1008.7 - 0.0 - - - - - - -
26/03:00am 27.2 S 6 8 1008.8 - 0.0 - - - - - - -
26/02:30am 27.0 SW 6 8 1008.6 - 0.0 - - - - - - -
26/02:00am 26.4 SSW 6 7 1009.0 - 0.0 - - - - - - -
26/01:30am 26.3 W 9 13 1008.1 - 0.0 - - - - - - -
26/01:00am 26.4 W 11 14 1007.8 - 0.0 - - - - - - -
26/12:30am 26.5 W 9 11 1008.1 - 0.0 - - - - - - -
26/12:00am 26.5 W 9 12 1008.1 - 0.0 - - - - - - -
 
Date/Time
WST
Temp

°C
Wind Pressure Rain
since 9am
mm
Weather Cloud Vis
km
Sea
Height
m
Swell
Dir
 
Speed
knots
Gust
knots
hPa Trend Height
m
Period
s
Dir
25/11:30pm 26.8 W 12 16 1008.3 - 0.0 - - - - - - -
25/11:00pm 27.1 W 14 18 1008.3 - 0.0 - - - - - - -
25/10:30pm 27.3 W 15 19 1008.2 - 0.0 - - - - - - -
25/10:00pm 27.7 W 14 19 1008.2 - 0.0 - - - - - - -
25/09:30pm 28.1 W 14 19 1008.1 - 0.0 - - - - - - -
25/09:00pm 28.6 W 14 19 1008.0 - 0.0 - - - - - - -
25/08:30pm 29.2 W 15 21 1007.5 - 0.0 - - - - - - -
25/08:00pm 29.6 W 15 19 1007.1 - 0.0 - - - - - - -
25/07:30pm 29.8 WNW 16 21 1006.7 - 0.0 - - - - - - -
25/07:00pm 30.8 WNW 16 20 1006.4 - 0.0 - - - - - - -
25/06:30pm 32.5 W 18 23 1006.0 - 0.0 - - - - - - -
25/06:00pm 34.3 WNW 20 24 1005.5 - 0.0 - - - - - - -
25/05:30pm 35.4 WNW 21 25 1005.3 - 0.0 - - - - - - -
25/05:00pm 36.4 WNW 20 24 1005.1 - 0.0 - - - - - - -

Other Formats:

Comma delimited format used in spreadsheet applications
http://www.bom.gov.au/fwo/IDW60701/IDW60701.94308.axf

JavaScript Object Notation format (JSON) in row-major order
http://www.bom.gov.au/fwo/IDW60701/IDW60701.94308.json